sensor_id;sensor_type;location;lat;lon;timestamp;P1;durP1;ratioP1;P2;durP2;ratioP2
19434;SDS011;9853;50.848;4.108;2023-05-10T00:01:26;14.10;;;5.60;;
19434;SDS011;9853;50.848;4.108;2023-05-10T00:03:27;18.20;;;6.57;;
19434;SDS011;9853;50.848;4.108;2023-05-10T00:05:27;15.70;;;6.38;;
19434;SDS011;9853;50.848;4.108;2023-05-10T00:07:28;20.77;;;6.60;;
19434;SDS011;9853;50.848;4.108;2023-05-10T00:09:29;17.77;;;5.97;;
19434;SDS011;9853;50.848;4.108;2023-05-10T00:11:30;19.48;;;6.97;;
19434;SDS011;9853;50.848;4.108;2023-05-10T00:13:31;19.65;;;6.93;;
19434;SDS011;9853;50.848;4.108;2023-05-10T00:15:32;19.33;;;7.00;;
19434;SDS011;9853;50.848;4.108;2023-05-10T00:17:34;19.15;;;7.03;;
19434;SDS011;9853;50.848;4.108;2023-05-10T00:19:35;18.27;;;7.10;;
19434;SDS011;9853;50.848;4.108;2023-05-10T00:21:36;14.93;;;6.57;;
19434;SDS011;9853;50.848;4.108;2023-05-10T00:23:37;18.45;;;7.10;;
19434;SDS011;9853;50.848;4.108;2023-05-10T00:25:38;16.70;;;7.35;;
19434;SDS011;9853;50.848;4.108;2023-05-10T00:27:39;13.18;;;6.53;;
19434;SDS011;9853;50.848;4.108;2023-05-10T00:29:40;19.52;;;7.47;;
19434;SDS011;9853;50.848;4.108;2023-05-10T00:31:42;17.60;;;7.25;;
19434;SDS011;9853;50.848;4.108;2023-05-10T00:33:43;23.65;;;7.22;;
19434;SDS011;9853;50.848;4.108;2023-05-10T00:35:44;20.73;;;7.68;;
19434;SDS011;9853;50.848;4.108;2023-05-10T00:37:45;19.00;;;7.32;;
19434;SDS011;9853;50.848;4.108;2023-05-10T00:39:46;20.52;;;7.03;;
19434;SDS011;9853;50.848;4.108;2023-05-10T00:41:46;15.80;;;7.00;;
19434;SDS011;9853;50.848;4.108;2023-05-10T00:43:47;18.23;;;7.25;;
19434;SDS011;9853;50.848;4.108;2023-05-10T00:45:48;20.27;;;7.50;;
19434;SDS011;9853;50.848;4.108;2023-05-10T00:47:50;15.60;;;6.47;;
19434;SDS011;9853;50.848;4.108;2023-05-10T00:49:55;22.55;;;7.97;;
19434;SDS011;9853;50.848;4.108;2023-05-10T00:51:56;22.55;;;7.97;;
19434;SDS011;9853;50.848;4.108;2023-05-10T00:53:57;19.27;;;7.97;;
19434;SDS011;9853;50.848;4.108;2023-05-10T00:55:59;17.70;;;7.82;;
19434;SDS011;9853;50.848;4.108;2023-05-10T00:58:00;19.75;;;9.07;;
19434;SDS011;9853;50.848;4.108;2023-05-10T01:00:02;18.75;;;7.43;;
19434;SDS011;9853;50.848;4.108;2023-05-10T01:02:03;14.65;;;7.85;;
19434;SDS011;9853;50.848;4.108;2023-05-10T01:04:05;16.83;;;8.50;;
19434;SDS011;9853;50.848;4.108;2023-05-10T01:06:06;14.00;;;7.72;;
19434;SDS011;9853;50.848;4.108;2023-05-10T01:08:07;18.70;;;9.18;;
19434;SDS011;9853;50.848;4.108;2023-05-10T01:10:09;22.55;;;8.02;;
19434;SDS011;9853;50.848;4.108;2023-05-10T01:12:10;18.20;;;8.45;;
19434;SDS011;9853;50.848;4.108;2023-05-10T01:14:12;17.63;;;7.22;;
19434;SDS011;9853;50.848;4.108;2023-05-10T01:16:14;15.45;;;8.52;;
19434;SDS011;9853;50.848;4.108;2023-05-10T01:18:15;22.23;;;8.48;;
19434;SDS011;9853;50.848;4.108;2023-05-10T01:20:20;14.18;;;7.60;;
19434;SDS011;9853;50.848;4.108;2023-05-10T01:32:48;16.73;;;8.25;;
19434;SDS011;9853;50.848;4.108;2023-05-10T01:34:39;19.58;;;8.25;;
19434;SDS011;9853;50.848;4.108;2023-05-10T01:37:09;19.73;;;8.73;;
19434;SDS011;9853;50.848;4.108;2023-05-10T01:39:25;19.65;;;8.85;;
19434;SDS011;9853;50.848;4.108;2023-05-10T01:41:48;16.90;;;9.27;;
19434;SDS011;9853;50.848;4.108;2023-05-10T01:43:53;19.13;;;8.93;;
19434;SDS011;9853;50.848;4.108;2023-05-10T01:46:02;17.92;;;8.02;;
19434;SDS011;9853;50.848;4.108;2023-05-10T01:48:11;20.30;;;9.15;;
19434;SDS011;9853;50.848;4.108;2023-05-10T01:50:18;23.02;;;9.15;;
19434;SDS011;9853;50.848;4.108;2023-05-10T01:52:32;20.58;;;9.20;;
19434;SDS011;9853;50.848;4.108;2023-05-10T01:54:38;23.88;;;9.30;;
19434;SDS011;9853;50.848;4.108;2023-05-10T01:56:55;24.83;;;10.27;;
19434;SDS011;9853;50.848;4.108;2023-05-10T01:59:00;22.48;;;9.98;;
19434;SDS011;9853;50.848;4.108;2023-05-10T02:01:08;21.83;;;10.63;;
19434;SDS011;9853;50.848;4.108;2023-05-10T02:03:11;27.10;;;10.77;;
19434;SDS011;9853;50.848;4.108;2023-05-10T02:05:14;23.55;;;11.05;;
19434;SDS011;9853;50.848;4.108;2023-05-10T02:07:16;24.38;;;10.45;;
19434;SDS011;9853;50.848;4.108;2023-05-10T02:09:18;23.38;;;10.68;;
19434;SDS011;9853;50.848;4.108;2023-05-10T02:11:20;24.55;;;11.65;;
19434;SDS011;9853;50.848;4.108;2023-05-10T02:13:23;20.83;;;10.93;;
19434;SDS011;9853;50.848;4.108;2023-05-10T02:15:26;21.30;;;10.43;;
19434;SDS011;9853;50.848;4.108;2023-05-10T02:17:27;23.80;;;10.68;;
19434;SDS011;9853;50.848;4.108;2023-05-10T02:19:31;20.80;;;10.18;;
19434;SDS011;9853;50.848;4.108;2023-05-10T02:21:32;23.02;;;10.60;;
19434;SDS011;9853;50.848;4.108;2023-05-10T02:23:34;20.33;;;10.93;;
19434;SDS011;9853;50.848;4.108;2023-05-10T02:25:36;23.17;;;10.20;;
19434;SDS011;9853;50.848;4.108;2023-05-10T02:27:39;21.95;;;9.98;;
19434;SDS011;9853;50.848;4.108;2023-05-10T02:29:43;19.85;;;9.68;;
19434;SDS011;9853;50.848;4.108;2023-05-10T02:31:45;22.92;;;9.60;;
19434;SDS011;9853;50.848;4.108;2023-05-10T02:33:47;23.25;;;9.80;;
19434;SDS011;9853;50.848;4.108;2023-05-10T02:35:50;20.13;;;10.27;;
19434;SDS011;9853;50.848;4.108;2023-05-10T02:37:51;20.60;;;10.20;;
19434;SDS011;9853;50.848;4.108;2023-05-10T02:39:53;20.10;;;9.40;;
19434;SDS011;9853;50.848;4.108;2023-05-10T02:41:57;24.15;;;10.40;;
19434;SDS011;9853;50.848;4.108;2023-05-10T02:43:59;24.33;;;11.02;;
19434;SDS011;9853;50.848;4.108;2023-05-10T02:46:02;29.20;;;11.15;;
19434;SDS011;9853;50.848;4.108;2023-05-10T02:48:04;25.58;;;10.02;;
19434;SDS011;9853;50.848;4.108;2023-05-10T02:50:05;23.20;;;10.85;;
19434;SDS011;9853;50.848;4.108;2023-05-10T02:52:07;19.70;;;10.10;;
19434;SDS011;9853;50.848;4.108;2023-05-10T02:54:11;21.85;;;10.95;;
19434;SDS011;9853;50.848;4.108;2023-05-10T02:56:19;30.02;;;12.48;;
19434;SDS011;9853;50.848;4.108;2023-05-10T02:58:25;24.05;;;11.02;;
19434;SDS011;9853;50.848;4.108;2023-05-10T03:00:27;21.95;;;11.55;;
19434;SDS011;9853;50.848;4.108;2023-05-10T03:02:28;24.65;;;12.18;;
19434;SDS011;9853;50.848;4.108;2023-05-10T03:04:30;23.95;;;11.60;;
19434;SDS011;9853;50.848;4.108;2023-05-10T03:06:32;25.13;;;13.75;;
19434;SDS011;9853;50.848;4.108;2023-05-10T03:08:33;28.30;;;13.30;;
19434;SDS011;9853;50.848;4.108;2023-05-10T03:10:37;27.67;;;14.30;;
19434;SDS011;9853;50.848;4.108;2023-05-10T03:15:12;31.45;;;13.90;;
19434;SDS011;9853;50.848;4.108;2023-05-10T03:19:56;26.15;;;13.82;;
19434;SDS011;9853;50.848;4.108;2023-05-10T03:22:02;28.35;;;13.93;;
19434;SDS011;9853;50.848;4.108;2023-05-10T03:24:09;25.63;;;13.60;;
19434;SDS011;9853;50.848;4.108;2023-05-10T03:26:15;29.20;;;13.40;;
19434;SDS011;9853;50.848;4.108;2023-05-10T03:28:21;25.45;;;13.95;;
19434;SDS011;9853;50.848;4.108;2023-05-10T03:30:25;25.40;;;13.75;;
19434;SDS011;9853;50.848;4.108;2023-05-10T03:32:26;27.52;;;14.10;;
19434;SDS011;9853;50.848;4.108;2023-05-10T03:34:29;30.05;;;13.85;;
19434;SDS011;9853;50.848;4.108;2023-05-10T03:36:31;30.52;;;14.50;;
19434;SDS011;9853;50.848;4.108;2023-05-10T03:38:33;24.92;;;13.05;;
19434;SDS011;9853;50.848;4.108;2023-05-10T03:40:33;29.55;;;14.45;;
19434;SDS011;9853;50.848;4.108;2023-05-10T03:42:34;28.55;;;14.80;;
19434;SDS011;9853;50.848;4.108;2023-05-10T03:44:35;30.45;;;14.45;;
19434;SDS011;9853;50.848;4.108;2023-05-10T03:46:37;31.60;;;16.30;;
19434;SDS011;9853;50.848;4.108;2023-05-10T03:48:38;30.60;;;15.38;;
19434;SDS011;9853;50.848;4.108;2023-05-10T03:50:39;38.53;;;16.73;;
19434;SDS011;9853;50.848;4.108;2023-05-10T03:52:40;31.58;;;16.08;;
19434;SDS011;9853;50.848;4.108;2023-05-10T03:54:41;30.15;;;17.10;;
19434;SDS011;9853;50.848;4.108;2023-05-10T03:56:42;38.13;;;17.88;;
19434;SDS011;9853;50.848;4.108;2023-05-10T03:58:42;34.47;;;16.02;;
19434;SDS011;9853;50.848;4.108;2023-05-10T04:00:43;34.03;;;17.95;;
19434;SDS011;9853;50.848;4.108;2023-05-10T04:02:46;36.63;;;18.60;;
19434;SDS011;9853;50.848;4.108;2023-05-10T04:04:52;37.33;;;18.25;;
19434;SDS011;9853;50.848;4.108;2023-05-10T04:06:53;42.00;;;18.85;;
19434;SDS011;9853;50.848;4.108;2023-05-10T04:08:55;35.95;;;18.45;;
19434;SDS011;9853;50.848;4.108;2023-05-10T04:11:05;36.60;;;17.52;;
19434;SDS011;9853;50.848;4.108;2023-05-10T04:13:07;35.58;;;17.48;;
19434;SDS011;9853;50.848;4.108;2023-05-10T04:15:08;33.53;;;16.98;;
19434;SDS011;9853;50.848;4.108;2023-05-10T04:17:09;35.78;;;17.10;;
19434;SDS011;9853;50.848;4.108;2023-05-10T04:19:10;41.70;;;16.98;;
19434;SDS011;9853;50.848;4.108;2023-05-10T04:21:12;34.15;;;16.48;;
19434;SDS011;9853;50.848;4.108;2023-05-10T04:23:13;38.97;;;15.45;;
19434;SDS011;9853;50.848;4.108;2023-05-10T04:25:16;29.30;;;14.80;;
19434;SDS011;9853;50.848;4.108;2023-05-10T04:27:17;27.60;;;13.75;;
19434;SDS011;9853;50.848;4.108;2023-05-10T04:29:19;33.05;;;13.75;;
19434;SDS011;9853;50.848;4.108;2023-05-10T04:31:20;34.28;;;14.05;;
19434;SDS011;9853;50.848;4.108;2023-05-10T04:33:21;31.85;;;12.65;;
19434;SDS011;9853;50.848;4.108;2023-05-10T04:35:22;35.50;;;13.38;;
19434;SDS011;9853;50.848;4.108;2023-05-10T04:37:23;32.53;;;13.52;;
19434;SDS011;9853;50.848;4.108;2023-05-10T04:39:24;27.50;;;12.30;;
19434;SDS011;9853;50.848;4.108;2023-05-10T04:41:25;30.13;;;12.90;;
19434;SDS011;9853;50.848;4.108;2023-05-10T04:43:26;26.10;;;12.15;;
19434;SDS011;9853;50.848;4.108;2023-05-10T04:45:26;26.70;;;11.75;;
19434;SDS011;9853;50.848;4.108;2023-05-10T04:47:27;26.33;;;11.30;;
19434;SDS011;9853;50.848;4.108;2023-05-10T04:49:28;25.13;;;11.82;;
19434;SDS011;9853;50.848;4.108;2023-05-10T04:51:30;25.00;;;12.15;;
19434;SDS011;9853;50.848;4.108;2023-05-10T04:53:31;23.08;;;10.85;;
19434;SDS011;9853;50.848;4.108;2023-05-10T04:55:32;30.45;;;11.70;;
19434;SDS011;9853;50.848;4.108;2023-05-10T04:57:33;30.67;;;11.35;;
19434;SDS011;9853;50.848;4.108;2023-05-10T04:59:35;32.90;;;11.40;;
19434;SDS011;9853;50.848;4.108;2023-05-10T05:01:37;32.05;;;11.52;;
19434;SDS011;9853;50.848;4.108;2023-05-10T05:03:38;29.02;;;11.13;;
19434;SDS011;9853;50.848;4.108;2023-05-10T05:05:38;21.48;;;10.93;;
19434;SDS011;9853;50.848;4.108;2023-05-10T05:07:47;22.48;;;10.60;;
19434;SDS011;9853;50.848;4.108;2023-05-10T05:09:51;22.27;;;11.18;;
19434;SDS011;9853;50.848;4.108;2023-05-10T05:11:51;32.13;;;11.35;;
19434;SDS011;9853;50.848;4.108;2023-05-10T05:13:52;32.05;;;11.95;;
19434;SDS011;9853;50.848;4.108;2023-05-10T05:15:53;33.75;;;12.15;;
19434;SDS011;9853;50.848;4.108;2023-05-10T05:17:57;32.42;;;12.82;;
19434;SDS011;9853;50.848;4.108;2023-05-10T05:22:39;30.92;;;12.50;;
19434;SDS011;9853;50.848;4.108;2023-05-10T05:24:48;29.70;;;13.15;;
19434;SDS011;9853;50.848;4.108;2023-05-10T05:28:01;27.70;;;13.10;;
19434;SDS011;9853;50.848;4.108;2023-05-10T05:34:07;41.70;;;14.18;;
19434;SDS011;9853;50.848;4.108;2023-05-10T08:32:49;9.93;;;6.40;;
19434;SDS011;9853;50.848;4.108;2023-05-10T08:35:05;10.77;;;6.57;;
19434;SDS011;9853;50.848;4.108;2023-05-10T08:39:57;12.75;;;7.10;;
19434;SDS011;9853;50.848;4.108;2023-05-10T08:41:58;15.50;;;6.82;;
19434;SDS011;9853;50.848;4.108;2023-05-10T08:44:04;13.20;;;7.07;;
19434;SDS011;9853;50.848;4.108;2023-05-10T08:46:16;9.18;;;6.72;;
19434;SDS011;9853;50.848;4.108;2023-05-10T11:25:53;13.93;;;7.53;;
19434;SDS011;9853;50.848;4.108;2023-05-10T11:28:32;13.35;;;7.22;;
19434;SDS011;9853;50.848;4.108;2023-05-10T12:14:25;11.05;;;7.00;;
19434;SDS011;9853;50.848;4.108;2023-05-10T12:52:31;15.90;;;8.30;;
19434;SDS011;9853;50.848;4.108;2023-05-10T13:03:31;13.80;;;8.13;;
19434;SDS011;9853;50.848;4.108;2023-05-10T13:06:10;11.68;;;8.20;;
19434;SDS011;9853;50.848;4.108;2023-05-10T13:08:36;14.50;;;7.80;;
19434;SDS011;9853;50.848;4.108;2023-05-10T13:53:18;12.52;;;9.15;;
19434;SDS011;9853;50.848;4.108;2023-05-10T13:59:20;12.95;;;9.23;;
19434;SDS011;9853;50.848;4.108;2023-05-10T14:27:59;19.40;;;8.88;;
19434;SDS011;9853;50.848;4.108;2023-05-10T14:30:30;13.68;;;9.00;;
19434;SDS011;9853;50.848;4.108;2023-05-10T14:32:39;11.55;;;6.20;;
19434;SDS011;9853;50.848;4.108;2023-05-10T14:34:47;10.50;;;5.15;;
19434;SDS011;9853;50.848;4.108;2023-05-10T14:37:13;10.10;;;5.25;;
19434;SDS011;9853;50.848;4.108;2023-05-10T14:39:22;10.18;;;5.03;;
19434;SDS011;9853;50.848;4.108;2023-05-10T14:41:31;11.07;;;4.68;;
19434;SDS011;9853;50.848;4.108;2023-05-10T14:43:40;13.73;;;5.28;;
19434;SDS011;9853;50.848;4.108;2023-05-10T14:45:41;18.95;;;5.32;;
19434;SDS011;9853;50.848;4.108;2023-05-10T14:47:48;15.15;;;5.65;;
19434;SDS011;9853;50.848;4.108;2023-05-10T14:50:00;10.93;;;5.40;;
19434;SDS011;9853;50.848;4.108;2023-05-10T14:52:30;13.32;;;4.65;;
19434;SDS011;9853;50.848;4.108;2023-05-10T14:54:54;13.45;;;4.70;;
19434;SDS011;9853;50.848;4.108;2023-05-10T14:56:59;12.80;;;4.47;;
19434;SDS011;9853;50.848;4.108;2023-05-10T15:02:21;9.90;;;4.82;;
19434;SDS011;9853;50.848;4.108;2023-05-10T15:04:52;14.52;;;5.28;;
19434;SDS011;9853;50.848;4.108;2023-05-10T15:06:56;11.75;;;4.60;;
19434;SDS011;9853;50.848;4.108;2023-05-10T15:09:09;12.93;;;4.95;;
19434;SDS011;9853;50.848;4.108;2023-05-10T15:11:10;10.90;;;4.47;;
19434;SDS011;9853;50.848;4.108;2023-05-10T15:13:14;12.20;;;5.45;;
19434;SDS011;9853;50.848;4.108;2023-05-10T15:15:19;16.75;;;4.90;;
19434;SDS011;9853;50.848;4.108;2023-05-10T15:17:20;13.00;;;4.72;;
19434;SDS011;9853;50.848;4.108;2023-05-10T15:19:35;11.45;;;4.28;;
19434;SDS011;9853;50.848;4.108;2023-05-10T15:21:42;9.63;;;3.55;;
19434;SDS011;9853;50.848;4.108;2023-05-10T15:26:12;9.88;;;3.58;;
19434;SDS011;9853;50.848;4.108;2023-05-10T15:28:36;6.88;;;3.05;;
19434;SDS011;9853;50.848;4.108;2023-05-10T15:30:57;9.30;;;3.22;;
19434;SDS011;9853;50.848;4.108;2023-05-10T15:33:16;11.35;;;3.50;;
19434;SDS011;9853;50.848;4.108;2023-05-10T15:35:17;14.32;;;3.33;;
19434;SDS011;9853;50.848;4.108;2023-05-10T15:37:21;9.30;;;3.20;;
19434;SDS011;9853;50.848;4.108;2023-05-10T15:39:25;9.05;;;2.97;;
19434;SDS011;9853;50.848;4.108;2023-05-10T15:41:29;8.68;;;3.33;;
19434;SDS011;9853;50.848;4.108;2023-05-10T15:43:34;9.73;;;3.80;;
19434;SDS011;9853;50.848;4.108;2023-05-10T15:45:35;10.65;;;4.65;;
19434;SDS011;9853;50.848;4.108;2023-05-10T15:47:36;10.52;;;4.35;;
19434;SDS011;9853;50.848;4.108;2023-05-10T15:49:45;11.52;;;4.45;;
19434;SDS011;9853;50.848;4.108;2023-05-10T15:51:53;9.27;;;4.22;;
19434;SDS011;9853;50.848;4.108;2023-05-10T15:53:57;10.52;;;4.55;;
19434;SDS011;9853;50.848;4.108;2023-05-10T15:56:07;11.18;;;4.80;;
19434;SDS011;9853;50.848;4.108;2023-05-10T15:58:25;9.65;;;4.50;;
19434;SDS011;9853;50.848;4.108;2023-05-10T16:00:26;8.65;;;4.38;;
19434;SDS011;9853;50.848;4.108;2023-05-10T16:02:32;11.95;;;5.00;;
19434;SDS011;9853;50.848;4.108;2023-05-10T16:04:55;10.18;;;5.80;;
19434;SDS011;9853;50.848;4.108;2023-05-10T16:07:43;11.00;;;5.32;;
19434;SDS011;9853;50.848;4.108;2023-05-10T16:09:55;14.30;;;5.93;;
19434;SDS011;9853;50.848;4.108;2023-05-10T16:11:59;16.17;;;6.43;;
19434;SDS011;9853;50.848;4.108;2023-05-10T16:39:31;17.58;;;8.52;;
19434;SDS011;9853;50.848;4.108;2023-05-10T16:41:32;13.60;;;8.43;;
19434;SDS011;9853;50.848;4.108;2023-05-10T16:43:33;15.57;;;8.43;;
19434;SDS011;9853;50.848;4.108;2023-05-10T16:45:35;14.38;;;8.35;;
19434;SDS011;9853;50.848;4.108;2023-05-10T16:47:37;15.10;;;7.40;;
19434;SDS011;9853;50.848;4.108;2023-05-10T16:49:39;14.75;;;5.55;;
19434;SDS011;9853;50.848;4.108;2023-05-10T16:51:39;12.65;;;5.90;;
19434;SDS011;9853;50.848;4.108;2023-05-10T16:53:40;13.07;;;5.95;;
19434;SDS011;9853;50.848;4.108;2023-05-10T16:55:41;18.73;;;6.90;;
19434;SDS011;9853;50.848;4.108;2023-05-10T16:57:42;17.80;;;8.35;;
19434;SDS011;9853;50.848;4.108;2023-05-10T16:59:42;15.00;;;9.25;;
19434;SDS011;9853;50.848;4.108;2023-05-10T17:01:43;16.95;;;7.78;;
19434;SDS011;9853;50.848;4.108;2023-05-10T17:03:45;16.35;;;7.68;;
19434;SDS011;9853;50.848;4.108;2023-05-10T17:05:46;19.35;;;7.75;;
19434;SDS011;9853;50.848;4.108;2023-05-10T17:07:46;19.17;;;8.82;;
19434;SDS011;9853;50.848;4.108;2023-05-10T17:09:48;22.20;;;8.90;;
19434;SDS011;9853;50.848;4.108;2023-05-10T17:11:49;21.73;;;8.52;;
19434;SDS011;9853;50.848;4.108;2023-05-10T17:13:50;20.38;;;9.38;;
19434;SDS011;9853;50.848;4.108;2023-05-10T17:15:51;17.55;;;9.32;;
19434;SDS011;9853;50.848;4.108;2023-05-10T17:17:52;15.85;;;8.75;;
19434;SDS011;9853;50.848;4.108;2023-05-10T17:19:53;20.77;;;9.65;;
19434;SDS011;9853;50.848;4.108;2023-05-10T17:21:53;17.38;;;9.27;;
19434;SDS011;9853;50.848;4.108;2023-05-10T17:23:54;20.98;;;8.55;;
19434;SDS011;9853;50.848;4.108;2023-05-10T17:25:55;18.27;;;8.93;;
19434;SDS011;9853;50.848;4.108;2023-05-10T17:27:56;17.90;;;8.55;;
19434;SDS011;9853;50.848;4.108;2023-05-10T17:29:57;20.73;;;9.32;;
19434;SDS011;9853;50.848;4.108;2023-05-10T17:31:58;19.75;;;9.00;;
19434;SDS011;9853;50.848;4.108;2023-05-10T17:33:59;20.00;;;9.00;;
19434;SDS011;9853;50.848;4.108;2023-05-10T17:35:59;19.83;;;8.48;;
19434;SDS011;9853;50.848;4.108;2023-05-10T17:38:00;14.70;;;7.97;;
19434;SDS011;9853;50.848;4.108;2023-05-10T17:40:01;16.45;;;9.13;;
19434;SDS011;9853;50.848;4.108;2023-05-10T17:42:04;22.65;;;9.48;;
19434;SDS011;9853;50.848;4.108;2023-05-10T17:44:05;17.33;;;9.13;;
19434;SDS011;9853;50.848;4.108;2023-05-10T17:46:06;16.33;;;8.98;;
19434;SDS011;9853;50.848;4.108;2023-05-10T17:48:07;25.42;;;11.63;;
19434;SDS011;9853;50.848;4.108;2023-05-10T17:50:10;26.35;;;13.38;;
19434;SDS011;9853;50.848;4.108;2023-05-10T17:52:11;23.38;;;13.45;;
19434;SDS011;9853;50.848;4.108;2023-05-10T17:54:11;23.02;;;13.68;;
19434;SDS011;9853;50.848;4.108;2023-05-10T17:56:12;30.13;;;15.48;;
19434;SDS011;9853;50.848;4.108;2023-05-10T17:58:13;26.42;;;14.45;;
19434;SDS011;9853;50.848;4.108;2023-05-10T18:00:14;28.92;;;14.38;;
19434;SDS011;9853;50.848;4.108;2023-05-10T18:02:15;28.58;;;15.85;;
19434;SDS011;9853;50.848;4.108;2023-05-10T18:04:16;33.80;;;17.00;;
19434;SDS011;9853;50.848;4.108;2023-05-10T18:06:17;30.75;;;16.17;;
19434;SDS011;9853;50.848;4.108;2023-05-10T18:08:18;29.60;;;15.73;;
19434;SDS011;9853;50.848;4.108;2023-05-10T18:10:24;26.95;;;14.15;;
19434;SDS011;9853;50.848;4.108;2023-05-10T18:12:25;31.23;;;13.45;;
19434;SDS011;9853;50.848;4.108;2023-05-10T18:14:26;26.90;;;12.40;;
19434;SDS011;9853;50.848;4.108;2023-05-10T18:16:27;23.85;;;12.95;;
19434;SDS011;9853;50.848;4.108;2023-05-10T18:18:28;27.15;;;13.43;;
19434;SDS011;9853;50.848;4.108;2023-05-10T18:20:29;26.67;;;13.38;;
19434;SDS011;9853;50.848;4.108;2023-05-10T18:22:30;25.80;;;13.68;;
19434;SDS011;9853;50.848;4.108;2023-05-10T18:24:31;27.65;;;13.38;;
19434;SDS011;9853;50.848;4.108;2023-05-10T18:26:33;23.30;;;12.38;;
19434;SDS011;9853;50.848;4.108;2023-05-10T18:28:33;21.90;;;11.23;;
19434;SDS011;9853;50.848;4.108;2023-05-10T18:30:36;28.90;;;11.65;;
19434;SDS011;9853;50.848;4.108;2023-05-10T18:32:37;20.42;;;11.05;;
19434;SDS011;9853;50.848;4.108;2023-05-10T18:34:38;22.65;;;11.10;;
19434;SDS011;9853;50.848;4.108;2023-05-10T18:36:39;27.13;;;11.68;;
19434;SDS011;9853;50.848;4.108;2023-05-10T18:38:42;23.55;;;11.23;;
19434;SDS011;9853;50.848;4.108;2023-05-10T18:40:45;25.75;;;11.90;;
19434;SDS011;9853;50.848;4.108;2023-05-10T18:42:46;20.17;;;11.63;;
19434;SDS011;9853;50.848;4.108;2023-05-10T18:44:49;21.83;;;11.50;;
19434;SDS011;9853;50.848;4.108;2023-05-10T18:46:49;23.10;;;11.00;;
19434;SDS011;9853;50.848;4.108;2023-05-10T18:48:52;18.25;;;11.57;;
19434;SDS011;9853;50.848;4.108;2023-05-10T18:50:54;20.85;;;11.32;;
19434;SDS011;9853;50.848;4.108;2023-05-10T18:52:55;21.40;;;12.13;;
19434;SDS011;9853;50.848;4.108;2023-05-10T18:54:55;20.58;;;13.07;;
19434;SDS011;9853;50.848;4.108;2023-05-10T18:56:56;26.20;;;12.80;;
19434;SDS011;9853;50.848;4.108;2023-05-10T18:58:57;20.95;;;13.45;;
19434;SDS011;9853;50.848;4.108;2023-05-10T19:00:58;25.80;;;13.25;;
19434;SDS011;9853;50.848;4.108;2023-05-10T19:02:59;29.42;;;13.68;;
19434;SDS011;9853;50.848;4.108;2023-05-10T19:05:00;22.65;;;12.63;;
19434;SDS011;9853;50.848;4.108;2023-05-10T19:07:01;24.48;;;12.93;;
19434;SDS011;9853;50.848;4.108;2023-05-10T19:09:02;25.70;;;11.90;;
19434;SDS011;9853;50.848;4.108;2023-05-10T19:11:03;19.83;;;10.50;;
19434;SDS011;9853;50.848;4.108;2023-05-10T19:13:04;22.55;;;10.80;;
19434;SDS011;9853;50.848;4.108;2023-05-10T19:15:05;25.00;;;11.45;;
19434;SDS011;9853;50.848;4.108;2023-05-10T19:17:06;27.70;;;10.60;;
19434;SDS011;9853;50.848;4.108;2023-05-10T19:19:07;18.77;;;11.13;;
19434;SDS011;9853;50.848;4.108;2023-05-10T19:21:09;19.67;;;11.70;;
19434;SDS011;9853;50.848;4.108;2023-05-10T19:23:10;28.02;;;13.70;;
19434;SDS011;9853;50.848;4.108;2023-05-10T19:25:11;27.98;;;14.23;;
19434;SDS011;9853;50.848;4.108;2023-05-10T19:27:12;21.60;;;12.80;;
19434;SDS011;9853;50.848;4.108;2023-05-10T19:29:13;24.35;;;11.55;;
19434;SDS011;9853;50.848;4.108;2023-05-10T19:31:13;25.23;;;13.57;;
19434;SDS011;9853;50.848;4.108;2023-05-10T19:33:16;24.17;;;13.88;;
19434;SDS011;9853;50.848;4.108;2023-05-10T19:35:17;30.67;;;14.57;;
19434;SDS011;9853;50.848;4.108;2023-05-10T19:37:18;31.10;;;15.52;;
19434;SDS011;9853;50.848;4.108;2023-05-10T19:39:19;33.97;;;15.82;;
19434;SDS011;9853;50.848;4.108;2023-05-10T19:41:19;38.13;;;18.00;;
19434;SDS011;9853;50.848;4.108;2023-05-10T19:43:21;39.28;;;17.52;;
19434;SDS011;9853;50.848;4.108;2023-05-10T19:45:21;43.03;;;19.55;;
19434;SDS011;9853;50.848;4.108;2023-05-10T19:47:22;32.78;;;18.08;;
19434;SDS011;9853;50.848;4.108;2023-05-10T19:49:23;32.63;;;16.52;;
19434;SDS011;9853;50.848;4.108;2023-05-10T19:51:24;34.08;;;17.42;;
19434;SDS011;9853;50.848;4.108;2023-05-10T19:53:24;29.88;;;17.20;;
19434;SDS011;9853;50.848;4.108;2023-05-10T19:55:27;35.40;;;18.23;;
19434;SDS011;9853;50.848;4.108;2023-05-10T19:57:29;41.28;;;17.98;;
19434;SDS011;9853;50.848;4.108;2023-05-10T19:59:30;37.33;;;18.40;;
19434;SDS011;9853;50.848;4.108;2023-05-10T20:01:31;34.28;;;17.67;;
19434;SDS011;9853;50.848;4.108;2023-05-10T20:03:32;36.10;;;18.05;;
19434;SDS011;9853;50.848;4.108;2023-05-10T20:05:33;36.80;;;18.88;;
19434;SDS011;9853;50.848;4.108;2023-05-10T20:07:35;35.83;;;20.05;;
19434;SDS011;9853;50.848;4.108;2023-05-10T20:09:36;44.95;;;22.90;;
19434;SDS011;9853;50.848;4.108;2023-05-10T20:11:37;43.65;;;22.85;;
19434;SDS011;9853;50.848;4.108;2023-05-10T20:13:37;38.55;;;21.27;;
19434;SDS011;9853;50.848;4.108;2023-05-10T20:15:38;44.85;;;21.15;;
19434;SDS011;9853;50.848;4.108;2023-05-10T20:17:39;42.53;;;20.92;;
19434;SDS011;9853;50.848;4.108;2023-05-10T20:19:39;45.63;;;20.45;;
19434;SDS011;9853;50.848;4.108;2023-05-10T20:21:40;44.45;;;20.88;;
19434;SDS011;9853;50.848;4.108;2023-05-10T20:23:42;38.47;;;20.58;;
19434;SDS011;9853;50.848;4.108;2023-05-10T20:25:42;45.97;;;21.02;;
19434;SDS011;9853;50.848;4.108;2023-05-10T20:27:43;49.67;;;20.83;;
19434;SDS011;9853;50.848;4.108;2023-05-10T20:29:44;45.10;;;21.08;;
19434;SDS011;9853;50.848;4.108;2023-05-10T20:31:45;45.15;;;22.52;;
19434;SDS011;9853;50.848;4.108;2023-05-10T20:33:46;43.80;;;20.80;;
19434;SDS011;9853;50.848;4.108;2023-05-10T20:35:47;44.88;;;20.40;;
19434;SDS011;9853;50.848;4.108;2023-05-10T20:37:49;38.55;;;20.83;;
19434;SDS011;9853;50.848;4.108;2023-05-10T20:39:50;38.83;;;21.40;;
19434;SDS011;9853;50.848;4.108;2023-05-10T20:41:50;37.25;;;20.02;;
19434;SDS011;9853;50.848;4.108;2023-05-10T20:43:53;35.08;;;19.55;;
19434;SDS011;9853;50.848;4.108;2023-05-10T20:45:54;31.60;;;18.65;;
19434;SDS011;9853;50.848;4.108;2023-05-10T20:47:55;32.55;;;17.48;;
19434;SDS011;9853;50.848;4.108;2023-05-10T20:49:56;38.55;;;18.95;;
19434;SDS011;9853;50.848;4.108;2023-05-10T20:51:57;33.70;;;19.05;;
19434;SDS011;9853;50.848;4.108;2023-05-10T20:53:58;32.90;;;18.27;;
19434;SDS011;9853;50.848;4.108;2023-05-10T20:56:00;30.35;;;17.25;;
19434;SDS011;9853;50.848;4.108;2023-05-10T20:58:01;33.25;;;17.70;;
19434;SDS011;9853;50.848;4.108;2023-05-10T21:00:02;36.42;;;17.42;;
19434;SDS011;9853;50.848;4.108;2023-05-10T21:02:04;41.50;;;20.85;;
19434;SDS011;9853;50.848;4.108;2023-05-10T21:04:06;44.42;;;19.90;;
19434;SDS011;9853;50.848;4.108;2023-05-10T21:06:06;44.05;;;20.02;;
19434;SDS011;9853;50.848;4.108;2023-05-10T21:08:07;37.35;;;18.88;;
19434;SDS011;9853;50.848;4.108;2023-05-10T21:10:09;37.38;;;18.50;;
19434;SDS011;9853;50.848;4.108;2023-05-10T21:12:10;44.70;;;19.13;;
19434;SDS011;9853;50.848;4.108;2023-05-10T21:14:12;41.50;;;17.88;;
19434;SDS011;9853;50.848;4.108;2023-05-10T21:16:12;34.88;;;16.92;;
19434;SDS011;9853;50.848;4.108;2023-05-10T21:18:13;31.70;;;16.55;;
19434;SDS011;9853;50.848;4.108;2023-05-10T21:22:39;34.85;;;17.38;;
19434;SDS011;9853;50.848;4.108;2023-05-10T21:24:40;45.00;;;17.67;;
19434;SDS011;9853;50.848;4.108;2023-05-10T21:26:41;39.10;;;18.50;;
19434;SDS011;9853;50.848;4.108;2023-05-10T21:28:42;33.05;;;16.13;;
19434;SDS011;9853;50.848;4.108;2023-05-10T21:30:43;35.05;;;17.90;;
19434;SDS011;9853;50.848;4.108;2023-05-10T21:32:44;34.70;;;17.70;;
19434;SDS011;9853;50.848;4.108;2023-05-10T21:34:45;47.70;;;19.70;;